Time;durP1;ratioP1;P1;durP2;ratioP2;P2;SDS_P1;SDS_P2;PMS_P1;PMS_P2;Temp;Humidity;BMP_temperature;BMP_pressure;BME280_temperature;BME280_humidity;BME280_pressure;Samples;Min_cycle;Max_cycle;Signal;HPM_P1;HPM_P2
2021/11/03 00:01:32;;;;;;;72.42;25.10;;;;;;;10.27;100.00;100785.41;1754856;81;21428;-92
2021/11/03 00:04:00;;;;;;;59.77;21.87;;;;;;;10.28;100.00;100781.09;1754508;80;21665;-92
2021/11/03 00:06:27;;;;;;;64.72;23.62;;;;;;;10.32;100.00;100782.74;1754306;81;21071;-91
2021/11/03 00:08:56;;;;;;;65.80;22.58;;;;;;;10.31;100.00;100781.94;1754514;81;21607;-92
2021/11/03 00:11:22;;;;;;;66.17;21.85;;;;;;;10.29;100.00;100776.52;1754826;81;21058;-92
2021/11/03 00:13:49;;;;;;;69.55;22.87;;;;;;;10.30;100.00;100784.90;1754095;80;21193;-91
2021/11/03 00:16:15;;;;;;;70.50;22.82;;;;;;;10.28;100.00;100795.10;1752563;81;21546;-92
2021/11/03 00:18:41;;;;;;;71.97;23.02;;;;;;;10.26;100.00;100788.58;1752164;80;20996;-93
2021/11/03 00:21:08;;;;;;;69.60;23.45;;;;;;;10.25;100.00;100785.61;1759969;77;21692;-92
2021/11/03 00:23:34;;;;;;;74.35;22.52;;;;;;;10.24;100.00;100786.15;1861998;77;21533;-92
2021/11/03 00:26:00;;;;;;;70.52;23.18;;;;;;;10.26;100.00;100784.53;1861854;77;21022;-91
2021/11/03 00:28:27;;;;;;;73.20;23.27;;;;;;;10.27;100.00;100790.79;1862187;77;20930;-92
2021/11/03 00:30:56;;;;;;;72.27;23.07;;;;;;;10.26;100.00;100784.53;1835985;77;21026;-92
2021/11/03 00:33:26;;;;;;;77.05;24.60;;;;;;;10.22;100.00;100780.73;1861481;77;21088;-92
2021/11/03 00:35:52;;;;;;;72.87;23.12;;;;;;;10.17;100.00;100778.78;1862074;77;21029;-92
2021/11/03 00:38:20;;;;;;;72.65;23.75;;;;;;;10.15;100.00;100788.20;1862230;77;21031;-92
2021/11/03 00:40:46;;;;;;;65.03;22.05;;;;;;;10.15;100.00;100798.44;1862235;77;20994;-92
2021/11/03 00:43:12;;;;;;;70.12;23.80;;;;;;;10.12;100.00;100802.98;1861870;77;21089;-92
2021/11/03 00:45:38;;;;;;;66.55;22.22;;;;;;;10.17;100.00;100801.67;1861967;77;20933;-92
2021/11/03 00:48:04;;;;;;;71.25;22.80;;;;;;;10.18;100.00;100811.94;1861742;77;20823;-92
2021/11/03 00:50:30;;;;;;;71.17;23.32;;;;;;;10.19;100.00;100812.21;1861946;77;21501;-92
2021/11/03 00:52:56;;;;;;;67.20;23.10;;;;;;;10.26;100.00;100805.27;1861939;77;21032;-91
2021/11/03 00:55:22;;;;;;;68.52;23.12;;;;;;;10.23;100.00;100802.55;1861859;77;21084;-92
2021/11/03 00:57:48;;;;;;;66.33;22.32;;;;;;;10.19;100.00;100808.17;1862152;77;20832;-92
2021/11/03 01:00:18;;;;;;;65.42;21.55;;;;;;;10.11;100.00;100799.98;1862022;77;20953;-92
2021/11/03 01:02:46;;;;;;;67.45;22.55;;;;;;;10.08;100.00;100803.72;1861998;77;20982;-91
2021/11/03 01:05:16;;;;;;;61.02;21.23;;;;;;;10.05;100.00;100804.23;1861827;77;21041;-91
2021/11/03 01:07:43;;;;;;;59.40;20.70;;;;;;;10.09;100.00;100806.18;1861708;77;21068;-92
2021/11/03 01:10:11;;;;;;;67.42;22.58;;;;;;;10.14;100.00;100807.56;1861886;77;21030;-92
2021/11/03 01:12:39;;;;;;;57.78;19.90;;;;;;;10.17;100.00;100806.25;1862110;77;21021;-92
2021/11/03 01:15:10;;;;;;;57.05;20.92;;;;;;;10.17;100.00;100814.33;1871149;75;21043;-92
2021/11/03 01:17:36;;;;;;;56.88;20.08;;;;;;;10.19;100.00;100827.02;1879505;76;21046;-92
2021/11/03 01:20:06;;;;;;;63.68;20.85;;;;;;;10.23;100.00;100822.75;1879270;76;21050;-92
2021/11/03 01:22:32;;;;;;;56.83;20.00;;;;;;;10.27;100.00;100820.42;1879694;76;20996;-93
2021/11/03 01:24:59;;;;;;;63.28;21.20;;;;;;;10.21;100.00;100831.09;1879396;76;20941;-94
2021/11/03 01:27:25;;;;;;;61.63;20.27;;;;;;;10.20;100.00;100846.14;1879438;76;20932;-92
2021/11/03 01:29:50;;;;;;;62.27;20.82;;;;;;;10.23;100.00;100846.98;1879384;76;20967;-91
2021/11/03 01:32:16;;;;;;;60.03;21.10;;;;;;;10.27;100.00;100847.36;1879336;76;21230;-92
2021/11/03 01:34:42;;;;;;;58.00;20.75;;;;;;;10.28;100.00;100844.39;1879224;76;20829;-92
2021/11/03 01:37:08;;;;;;;64.50;21.90;;;;;;;10.26;100.00;100853.22;1879351;76;21542;-92
2021/11/03 01:39:34;;;;;;;58.38;20.62;;;;;;;10.20;100.00;100842.10;1879418;76;21020;-92
2021/11/03 01:42:00;;;;;;;62.70;21.30;;;;;;;10.23;100.00;100842.95;1879307;76;21050;-94
2021/11/03 01:44:26;;;;;;;62.67;20.90;;;;;;;10.21;100.00;100846.45;1879344;76;21332;-93
2021/11/03 01:47:48;;;;;;;65.35;21.90;;;;;;;10.19;100.00;100848.03;1879330;76;20833;-92
2021/11/03 01:50:37;;;;;;;57.23;19.87;;;;;;;10.19;100.00;100852.61;1878865;76;20969;-91
2021/11/03 01:53:20;;;;;;;61.60;21.20;;;;;;;10.17;100.00;100845.30;1879781;76;21764;-93
2021/11/03 01:55:54;;;;;;;63.65;22.60;;;;;;;10.13;100.00;100843.65;1879668;76;21055;-93
2021/11/03 01:58:26;;;;;;;67.87;21.25;;;;;;;10.06;100.00;100844.38;1878960;76;21011;-92
2021/11/03 02:00:56;;;;;;;62.55;20.10;;;;;;;10.05;100.00;100845.96;1878923;76;20972;-93
2021/11/03 02:03:26;;;;;;;74.27;23.92;;;;;;;10.08;100.00;100853.00;1879458;76;21547;-93
2021/11/03 02:06:04;;;;;;;75.97;24.60;;;;;;;10.06;100.00;100837.65;1879573;76;21522;-93
2021/11/03 02:08:34;;;;;;;70.22;24.47;;;;;;;10.10;100.00;100839.30;1680838;84;21054;-93
2021/11/03 02:11:01;;;;;;;82.72;24.80;;;;;;;10.02;100.00;100832.46;1680703;85;21999;-93
2021/11/03 02:13:27;;;;;;;85.22;25.85;;;;;;;9.99;100.00;100832.42;1657417;84;21556;-93
2021/11/03 02:15:54;;;;;;;79.92;23.42;;;;;;;9.95;100.00;100824.58;1657975;85;21075;-92
2021/11/03 02:18:22;;;;;;;81.78;24.65;;;;;;;9.96;100.00;100836.97;1651931;86;21004;-93
2021/11/03 02:20:50;;;;;;;72.20;23.62;;;;;;;9.96;100.00;100836.97;1652018;86;21203;-93
2021/11/03 02:23:44;;;;;;;76.15;24.57;;;;;;;9.98;100.00;100840.23;1651940;86;21189;-93
2021/11/03 02:26:16;;;;;;;74.77;25.12;;;;;;;9.99;100.00;100847.23;1652330;86;21103;-93
2021/11/03 02:28:45;;;;;;;85.53;25.52;;;;;;;10.00;100.00;100851.58;1597063;89;21035;-93
2021/11/03 02:31:36;;;;;;;77.50;24.77;;;;;;;10.00;100.00;100849.42;1600540;88;21047;-93
2021/11/03 02:34:06;;;;;;;75.05;24.02;;;;;;;9.98;100.00;100856.92;1599979;89;21143;-94
2021/11/03 02:36:33;;;;;;;71.07;23.83;;;;;;;9.91;100.00;100846.34;1600538;89;21182;-93
2021/11/03 02:39:04;;;;;;;69.97;24.07;;;;;;;9.91;100.00;100846.34;1600288;89;21020;-93
2021/11/03 02:41:34;;;;;;;79.75;24.70;;;;;;;9.88;100.00;100843.31;1579646;89;21081;-92
2021/11/03 02:44:11;;;;;;;72.67;23.95;;;;;;;9.84;100.00;100848.92;1600397;89;21126;-93
2021/11/03 02:46:37;;;;;;;75.97;24.00;;;;;;;9.82;100.00;100851.84;1632880;85;21082;-92
2021/11/03 02:49:04;;;;;;;85.17;27.07;;;;;;;9.85;100.00;100851.34;1650993;85;21087;-92
2021/11/03 02:51:41;;;;;;;82.12;25.52;;;;;;;9.83;100.00;100848.64;1650917;86;21030;-92
2021/11/03 02:54:12;;;;;;;84.30;26.35;;;;;;;9.80;100.00;100850.48;1650647;86;21666;-92
2021/11/03 02:56:44;;;;;;;92.72;26.17;;;;;;;9.76;100.00;100849.64;1651091;86;21065;-93
2021/11/03 02:59:11;;;;;;;83.50;26.05;;;;;;;9.75;100.00;100852.56;1645250;85;21149;-93
2021/11/03 03:01:47;;;;;;;87.25;26.70;;;;;;;9.76;100.00;100852.34;1675195;85;21081;-92
2021/11/03 03:04:18;;;;;;;96.75;28.02;;;;;;;9.77;100.00;100849.11;1674926;85;21120;-93
2021/11/03 03:06:45;;;;;;;105.32;29.32;;;;;;;9.74;100.00;100853.64;1675375;85;21494;-93
2021/11/03 03:09:12;;;;;;;91.17;28.55;;;;;;;9.70;100.00;100852.48;1675299;85;21073;-92
2021/11/03 03:11:41;;;;;;;102.67;29.72;;;;;;;9.70;100.00;100849.26;1675226;85;21223;-92
2021/11/03 03:14:09;;;;;;;102.53;29.85;;;;;;;9.67;100.00;100844.91;1675006;85;21418;-93
2021/11/03 03:16:35;;;;;;;103.78;29.70;;;;;;;9.63;100.00;100843.25;1674547;84;21010;-93
2021/11/03 03:19:02;;;;;;;97.90;29.52;;;;;;;9.66;100.00;100843.30;1674844;85;21018;-93
2021/11/03 03:21:29;;;;;;;109.72;31.57;;;;;;;9.64;100.00;100838.14;1675195;85;21581;-93
2021/11/03 03:23:56;;;;;;;123.53;33.50;;;;;;;9.60;100.00;100833.52;1674961;84;21172;-93
2021/11/03 03:26:24;;;;;;;107.45;30.68;;;;;;;9.65;100.00;100846.52;1693443;84;21913;-93
2021/11/03 03:28:51;;;;;;;119.13;31.57;;;;;;;9.69;100.00;100843.60;1697349;84;21088;-93
2021/11/03 03:31:18;;;;;;;111.88;30.80;;;;;;;9.70;100.00;100847.91;1697485;83;21147;-92
2021/11/03 03:33:46;;;;;;;120.67;33.25;;;;;;;9.69;100.00;100844.95;1697359;84;21047;-92
2021/11/03 03:36:12;;;;;;;119.93;32.90;;;;;;;9.67;100.00;100847.06;1705085;83;21053;-93
2021/11/03 03:38:38;;;;;;;125.97;34.35;;;;;;;9.70;100.00;100841.72;1721160;83;21093;-93
2021/11/03 03:41:04;;;;;;;123.18;34.33;;;;;;;9.74;100.00;100849.06;1721229;83;20957;-93
2021/11/03 03:43:30;;;;;;;116.25;33.23;;;;;;;9.76;100.00;100847.45;1721308;83;21044;-92
2021/11/03 03:45:57;;;;;;;105.92;31.73;;;;;;;9.78;100.00;100850.72;1721450;83;21569;-92
2021/11/03 03:48:22;;;;;;;122.05;33.58;;;;;;;9.77;100.00;100849.11;1721202;83;21143;-92
2021/11/03 03:50:49;;;;;;;112.68;34.18;;;;;;;9.76;100.00;100850.14;1721658;83;21168;-93
2021/11/03 03:53:14;;;;;;;127.78;33.55;;;;;;;9.76;100.00;100843.42;1721359;83;21077;-93
2021/11/03 03:55:41;;;;;;;122.65;34.20;;;;;;;9.79;100.00;100851.00;1777468;76;20884;-93
2021/11/03 03:58:07;;;;;;;124.38;34.55;;;;;;;9.79;100.00;100851.00;1878940;76;21519;-93
2021/11/03 04:00:36;;;;;;;118.93;33.20;;;;;;;9.82;100.00;100855.08;1874326;76;20991;-94
2021/11/03 04:03:03;;;;;;;126.60;35.23;;;;;;;9.83;100.00;100849.45;1879149;76;21476;-94
2021/11/03 04:05:30;;;;;;;122.60;34.98;;;;;;;9.84;100.00;100854.30;1879042;76;21384;-93
2021/11/03 04:07:55;;;;;;;127.17;35.85;;;;;;;9.79;100.00;100852.34;1878582;76;20960;-93
2021/11/03 04:10:22;;;;;;;138.52;35.08;;;;;;;9.82;100.00;100843.77;1879060;76;21553;-92
2021/11/03 04:12:48;;;;;;;132.25;37.08;;;;;;;9.79;100.00;100834.84;1879425;76;21092;-93
2021/11/03 04:15:16;;;;;;;133.10;34.63;;;;;;;9.68;100.00;100837.95;1879027;75;21082;-93
2021/11/03 04:17:42;;;;;;;130.45;36.35;;;;;;;9.78;100.00;100842.11;1879450;76;20952;-92
2021/11/03 04:20:12;;;;;;;135.90;36.55;;;;;;;9.76;100.00;100838.03;1879335;76;21050;-93
2021/11/03 04:22:38;;;;;;;131.75;35.85;;;;;;;9.78;100.00;100839.42;1879392;76;21082;-92
2021/11/03 04:25:06;;;;;;;148.45;37.45;;;;;;;9.78;100.00;100823.81;1873751;76;21012;-91
2021/11/03 04:27:32;;;;;;;141.55;36.08;;;;;;;9.77;100.00;100828.38;1879473;76;21278;-92
2021/11/03 04:29:58;;;;;;;154.35;36.65;;;;;;;9.77;100.00;100823.54;1879267;76;20909;-91
2021/11/03 04:32:24;;;;;;;159.85;36.85;;;;;;;9.78;100.00;100821.12;1879405;76;20911;-90
2021/11/03 04:34:50;;;;;;;153.85;37.42;;;;;;;9.80;100.00;100831.65;1879260;76;20904;-92
2021/11/03 04:37:16;;;;;;;166.15;38.33;;;;;;;9.85;100.00;100829.81;1844555;76;21242;-90
2021/11/03 04:39:42;;;;;;;169.32;38.13;;;;;;;9.91;100.00;100838.77;1879377;76;21863;-90
2021/11/03 04:42:09;;;;;;;175.55;40.67;;;;;;;9.92;100.00;100831.81;1874890;76;20983;-90
2021/11/03 04:44:36;;;;;;;192.68;43.17;;;;;;;9.92;100.00;100832.34;1879212;76;21028;-89
2021/11/03 04:47:03;;;;;;;180.50;40.60;;;;;;;9.93;100.00;100849.58;1878874;76;21078;-90
2021/11/03 04:49:32;;;;;;;191.25;39.42;;;;;;;9.97;100.00;100852.58;1879421;76;20936;-89
2021/11/03 04:51:57;;;;;;;174.45;38.53;;;;;;;9.98;100.00;100868.50;1878187;76;21050;-89
2021/11/03 04:54:23;;;;;;;189.50;40.50;;;;;;;10.03;100.00;100879.05;1879506;76;21112;-89
2021/11/03 04:56:51;;;;;;;188.97;38.28;;;;;;;10.05;100.00;100876.92;1879515;76;20884;-89
2021/11/03 04:59:18;;;;;;;172.32;38.58;;;;;;;10.11;100.00;100883.47;1878836;76;21552;-90
2021/11/03 05:01:45;;;;;;;195.55;40.38;;;;;;;10.18;100.00;100878.73;1879556;76;21464;-90
2021/11/03 05:04:11;;;;;;;196.22;38.10;;;;;;;10.23;100.00;100874.77;1879148;76;21016;-90
2021/11/03 05:06:41;;;;;;;191.28;39.88;;;;;;;10.26;100.00;100873.95;1879437;76;21335;-89
2021/11/03 05:09:09;;;;;;;185.73;37.85;;;;;;;10.27;100.00;100864.33;1852907;77;20992;-90
2021/11/03 05:11:36;;;;;;;189.57;37.08;;;;;;;10.28;100.00;100869.17;1852976;77;21060;-90
2021/11/03 05:14:03;;;;;;;176.50;36.98;;;;;;;10.29;100.00;100866.21;1852737;77;21587;-89
2021/11/03 05:16:29;;;;;;;176.75;36.95;;;;;;;10.30;100.00;100863.02;1850574;76;21970;-90
2021/11/03 05:18:57;;;;;;;193.37;37.83;;;;;;;10.31;100.00;100861.40;1820139;77;21048;-89
2021/11/03 05:21:23;;;;;;;184.05;37.48;;;;;;;10.32;100.00;100856.28;1849600;77;21055;-89
2021/11/03 05:23:49;;;;;;;187.27;38.00;;;;;;;10.33;100.00;100854.42;1849822;77;21016;-90
2021/11/03 05:26:20;;;;;;;180.03;37.20;;;;;;;10.34;100.00;100854.70;1849707;77;21484;-90
2021/11/03 05:28:50;;;;;;;173.95;37.55;;;;;;;10.35;100.00;100856.31;1846106;77;22017;-89
2021/11/03 05:31:16;;;;;;;176.50;35.43;;;;;;;10.37;100.00;100855.54;1846580;77;20976;-90
2021/11/03 05:33:42;;;;;;;165.30;34.05;;;;;;;10.40;100.00;100852.34;1849657;77;21035;-89
2021/11/03 05:36:12;;;;;;;163.35;32.95;;;;;;;10.44;100.00;100871.81;1849663;77;20857;-89
2021/11/03 05:38:38;;;;;;;152.75;32.40;;;;;;;10.46;100.00;100876.39;1849246;77;21537;-89
2021/11/03 05:41:05;;;;;;;159.03;31.97;;;;;;;10.52;100.00;100883.19;1849363;77;21041;-91
2021/11/03 05:43:31;;;;;;;167.62;34.60;;;;;;;10.54;100.00;100887.27;1844896;77;21579;-91
2021/11/03 05:45:58;;;;;;;142.22;32.00;;;;;;;10.56;100.00;100891.05;1846397;76;21539;-90
2021/11/03 05:48:30;;;;;;;148.65;31.95;;;;;;;10.57;100.00;100892.69;1867359;76;21125;-91
2021/11/03 05:50:57;;;;;;;133.72;32.88;;;;;;;10.62;100.00;100892.75;1855946;76;21585;-90
2021/11/03 05:53:23;;;;;;;147.35;33.40;;;;;;;10.64;100.00;100888.71;1868088;76;21113;-91
2021/11/03 05:55:49;;;;;;;143.52;32.10;;;;;;;10.68;100.00;100894.44;1862762;76;21494;-91
2021/11/03 05:58:16;;;;;;;149.97;32.53;;;;;;;10.71;100.00;100894.44;1864555;76;21666;-90
2021/11/03 06:00:42;;;;;;;133.80;29.90;;;;;;;10.73;100.00;100895.01;1830446;76;20971;-91
2021/11/03 06:03:10;;;;;;;125.85;29.07;;;;;;;10.73;100.00;100897.16;1831519;76;21019;-91
2021/11/03 06:05:36;;;;;;;111.32;26.42;;;;;;;10.76;100.00;100901.23;1866336;76;21339;-91
2021/11/03 06:08:06;;;;;;;105.32;26.82;;;;;;;10.77;100.00;100898.84;1868102;76;20931;-90
2021/11/03 06:10:38;;;;;;;94.60;25.12;;;;;;;10.77;100.00;100900.19;1866419;76;21507;-91
2021/11/03 06:13:06;;;;;;;93.10;25.55;;;;;;;10.80;100.00;100900.49;1864112;76;21598;-90
2021/11/03 06:15:33;;;;;;;86.32;24.27;;;;;;;10.82;100.00;100906.96;1863939;76;21121;-90
2021/11/03 06:18:00;;;;;;;76.60;23.12;;;;;;;10.85;100.00;100907.80;1867219;76;21163;-89
2021/11/03 06:20:28;;;;;;;83.82;24.15;;;;;;;10.86;100.00;100909.45;1867652;76;21499;-90
2021/11/03 06:22:54;;;;;;;78.90;23.73;;;;;;;10.83;100.00;100909.95;1861852;76;21621;-90
2021/11/03 06:25:20;;;;;;;77.53;22.90;;;;;;;10.81;100.00;100908.05;1866175;76;20872;-90
2021/11/03 06:27:47;;;;;;;73.83;24.37;;;;;;;10.80;100.00;100908.58;1869221;76;21045;-91
2021/11/03 06:30:18;;;;;;;74.92;22.73;;;;;;;10.77;100.00;100896.95;1866162;76;21518;-91
2021/11/03 06:32:45;;;;;;;75.72;23.10;;;;;;;10.80;100.00;100914.52;1866808;76;21530;-90
2021/11/03 06:35:12;;;;;;;70.97;23.05;;;;;;;10.83;100.00;100912.11;1864372;76;20964;-92
2021/11/03 06:37:39;;;;;;;65.62;21.85;;;;;;;10.83;100.00;100914.81;1867001;76;21062;-91
2021/11/03 06:40:09;;;;;;;69.80;22.32;;;;;;;10.81;100.00;100914.24;1867176;76;20983;-91
2021/11/03 06:42:35;;;;;;;62.80;20.40;;;;;;;10.86;100.00;100911.61;1865623;75;21321;-90
2021/11/03 06:45:03;;;;;;;68.33;21.35;;;;;;;10.87;100.00;100913.77;1869444;76;21052;-91
2021/11/03 06:47:30;;;;;;;58.48;20.30;;;;;;;10.88;100.00;100905.44;1879115;76;21440;-92
2021/11/03 06:49:56;;;;;;;59.23;20.00;;;;;;;10.94;100.00;100913.02;1878791;76;21074;-91
2021/11/03 06:52:23;;;;;;;61.98;19.57;;;;;;;10.99;100.00;100917.12;1856415;76;21069;-91
2021/11/03 06:54:50;;;;;;;54.77;19.80;;;;;;;11.05;100.00;100917.45;1856081;76;21251;-92
2021/11/03 06:57:17;;;;;;;52.25;18.70;;;;;;;11.13;100.00;100912.14;1835484;76;21435;-93
2021/11/03 06:59:43;;;;;;;55.40;18.98;;;;;;;11.14;100.00;100913.75;1873965;76;21127;-93
2021/11/03 07:02:15;;;;;;;48.63;17.55;;;;;;;11.16;100.00;100912.17;1879133;76;21007;-92
2021/11/03 07:04:42;;;;;;;44.90;17.45;;;;;;;11.15;100.00;100908.66;1875516;76;21136;-92
2021/11/03 07:07:09;;;;;;;44.23;16.60;;;;;;;11.14;100.00;100909.71;1879103;76;21085;-93
2021/11/03 07:09:35;;;;;;;45.70;16.75;;;;;;;11.14;100.00;100911.87;1850111;76;21509;-93
2021/11/03 07:12:03;;;;;;;46.18;16.77;;;;;;;11.14;100.00;100910.52;1879268;76;21078;-95
2021/11/03 07:14:29;;;;;;;45.30;17.12;;;;;;;11.17;100.00;100909.73;1879402;76;21003;-93
2021/11/03 07:16:55;;;;;;;44.67;16.57;;;;;;;11.18;100.00;100910.01;1878968;76;20999;-93
2021/11/03 07:19:22;;;;;;;42.33;16.65;;;;;;;11.19;100.00;100914.35;1879436;76;21016;-94
2021/11/03 07:21:48;;;;;;;47.73;18.37;;;;;;;11.22;100.00;100911.95;1879112;76;21453;-92
2021/11/03 07:24:15;;;;;;;43.55;17.17;;;;;;;11.22;100.00;100910.60;1879256;76;20988;-92
2021/11/03 07:26:46;;;;;;;43.83;17.17;;;;;;;11.23;100.00;100918.97;1879387;76;21007;-92
2021/11/03 07:29:13;;;;;;;44.05;16.57;;;;;;;11.24;100.00;100913.87;1879442;76;20992;-92
2021/11/03 07:31:40;;;;;;;47.15;16.25;;;;;;;11.25;100.00;100915.48;1879757;76;21051;-91
2021/11/03 07:34:06;;;;;;;43.08;17.32;;;;;;;11.27;100.00;100921.45;1879202;76;20959;-94
2021/11/03 07:36:33;;;;;;;45.08;17.65;;;;;;;11.26;100.00;100914.41;1879663;76;21046;-91
2021/11/03 07:38:59;;;;;;;38.17;17.12;;;;;;;11.27;100.00;100917.40;1879324;76;20991;-88
2021/11/03 07:41:26;;;;;;;46.42;17.87;;;;;;;11.29;100.00;100917.12;1879845;76;20983;-91
2021/11/03 07:43:53;;;;;;;46.00;16.82;;;;;;;11.32;100.00;100909.87;1879529;76;21078;-88
2021/11/03 07:46:19;;;;;;;46.00;16.87;;;;;;;11.38;100.00;100923.67;1879588;76;20984;-88
2021/11/03 07:48:46;;;;;;;43.75;17.82;;;;;;;11.36;100.00;100916.39;1879098;76;21522;-91
2021/11/03 07:51:16;;;;;;;48.02;17.87;;;;;;;11.35;100.00;100919.64;1879393;76;21066;-89
2021/11/03 07:53:43;;;;;;;46.40;17.10;;;;;;;11.40;100.00;100922.89;1879320;76;20980;-89
2021/11/03 07:56:15;;;;;;;46.90;17.57;;;;;;;11.44;100.00;100919.98;1824810;76;21087;-87
2021/11/03 07:58:41;;;;;;;45.00;17.85;;;;;;;11.47;100.00;100925.37;1875162;76;21034;-89
2021/11/03 08:01:09;;;;;;;45.75;18.48;;;;;;;11.53;100.00;100930.58;1879361;76;21007;-89
2021/11/03 08:03:37;;;;;;;49.65;19.20;;;;;;;11.58;100.00;100937.34;1879433;76;21055;-88
2021/11/03 08:06:04;;;;;;;48.60;18.35;;;;;;;11.64;100.00;100933.34;1875108;76;21015;-88
2021/11/03 08:08:40;;;;;;;47.73;18.73;;;;;;;11.72;100.00;100935.03;1852560;76;21821;-89
2021/11/03 08:11:07;;;;;;;45.85;17.52;;;;;;;11.75;100.00;100927.76;1879452;76;21019;-87
2021/11/03 08:13:36;;;;;;;46.50;17.27;;;;;;;11.71;100.00;100928.55;1879345;76;21054;-94
2021/11/03 08:16:04;;;;;;;44.42;16.67;;;;;;;11.77;100.00;100936.42;1879028;76;21121;-92
2021/11/03 08:18:41;;;;;;;42.53;17.32;;;;;;;11.79;100.00;100934.80;1879097;76;21009;-94
2021/11/03 08:21:10;;;;;;;43.70;17.48;;;;;;;11.81;100.00;100942.11;1879071;76;22192;-94
2021/11/03 08:23:36;;;;;;;46.28;18.02;;;;;;;11.83;100.00;100952.94;1879296;76;21011;-93
2021/11/03 08:26:02;;;;;;;49.50;19.90;;;;;;;11.89;100.00;100953.81;1879273;76;20927;-95
2021/11/03 08:28:28;;;;;;;52.03;19.80;;;;;;;11.91;100.00;100961.64;1811063;78;20941;-92
2021/11/03 08:30:56;;;;;;;48.63;18.70;;;;;;;11.97;100.00;100959.25;1758231;79;21015;-92
2021/11/03 08:33:40;;;;;;;46.88;18.60;;;;;;;12.03;100.00;100967.16;1810681;79;21242;-95
2021/11/03 08:36:09;;;;;;;49.20;18.30;;;;;;;12.12;100.00;100963.43;1810614;79;21027;-93
2021/11/03 08:38:36;;;;;;;48.10;18.00;;;;;;;12.20;100.00;100960.75;1810650;79;21012;-95
2021/11/03 08:41:05;;;;;;;42.30;16.87;;;;;;;12.27;100.00;100964.86;1810831;79;21034;-96
2021/11/03 08:43:38;;;;;;;42.53;17.07;;;;;;;12.35;100.00;100959.48;1810813;79;20992;-95
2021/11/03 08:46:06;;;;;;;41.10;16.00;;;;;;;12.41;100.00;100957.62;1811275;79;21245;-96
2021/11/03 08:48:46;;;;;;;36.35;15.05;;;;;;;12.48;100.00;100957.67;1811645;79;20850;-96
2021/11/03 08:51:12;;;;;;;41.75;16.17;;;;;;;12.57;100.00;100956.63;1791808;80;21010;-96
2021/11/03 08:53:39;;;;;;;40.12;17.25;;;;;;;12.65;100.00;100958.83;1792418;80;21059;-96
2021/11/03 08:56:05;;;;;;;41.45;16.55;;;;;;;12.76;100.00;100957.50;1718244;80;20936;-96
2021/11/03 08:58:31;;;;;;;38.75;15.90;;;;;;;12.83;100.00;100958.89;1687775;83;21043;-96
2021/11/03 09:00:57;;;;;;;35.90;15.43;;;;;;;12.81;100.00;100946.16;1719148;83;21086;-96
2021/11/03 09:04:13;;;;;;;35.75;14.90;;;;;;;13.00;100.00;100964.59;1684268;82;21069;-96
2021/11/03 09:06:39;;;;;;;30.10;13.75;;;;;;;13.07;100.00;100961.12;1736395;82;21031;-96
2021/11/03 09:09:09;;;;;;;28.73;13.13;;;;;;;13.09;100.00;100961.67;1684392;81;21016;-95
2021/11/03 09:11:35;;;;;;;30.15;13.13;;;;;;;13.10;100.00;100964.09;1609460;89;21114;-94
2021/11/03 09:14:05;;;;;;;30.77;14.15;;;;;;;13.11;100.00;100963.00;1594805;89;21071;-94
2021/11/03 09:17:09;;;;;;;33.10;13.72;;;;;;;13.12;100.00;100955.18;1564635;89;21691;-94
2021/11/03 09:19:55;;;;;;;29.82;13.32;;;;;;;13.14;100.00;100955.70;1562530;90;21145;-94
2021/11/03 09:22:26;;;;;;;35.75;15.00;;;;;;;13.12;100.00;100953.02;1555326;90;21121;-91
2021/11/03 09:24:52;;;;;;;35.85;14.60;;;;;;;13.15;100.00;100950.58;1507157;95;22053;-91
2021/11/03 09:27:18;;;;;;;33.13;13.15;;;;;;;13.13;100.00;100947.87;1508116;95;21555;-94
2021/11/03 09:29:48;;;;;;;33.98;15.15;;;;;;;13.10;100.00;100945.70;1507992;95;21164;-91
2021/11/03 09:32:20;;;;;;;31.15;13.38;;;;;;;13.09;100.00;100951.66;1505984;95;21218;-94
2021/11/03 09:34:50;;;;;;;33.92;14.68;;;;;;;13.08;100.00;100951.36;1506427;93;21093;-93
2021/11/03 09:39:53;;;;;;;34.15;13.38;;;;;;;13.08;100.00;100956.78;1431676;100;21632;-92
2021/11/03 09:42:22;;;;;;;33.10;14.28;;;;;;;13.04;100.00;100956.23;1431783;100;21068;-92
2021/11/03 09:44:51;;;;;;;30.05;13.28;;;;;;;13.05;100.00;100953.25;1432180;100;21114;-93
2021/11/03 09:47:28;;;;;;;34.13;14.13;;;;;;;13.02;100.00;100942.97;1430921;100;21221;-94
2021/11/03 09:50:18;;;;;;;31.12;14.00;;;;;;;13.02;100.00;100950.27;1428709;100;21212;-92
2021/11/03 09:52:52;;;;;;;41.98;16.17;;;;;;;13.00;100.00;100950.56;1414681;100;21140;-92
2021/11/03 09:55:26;;;;;;;35.92;15.53;;;;;;;13.03;100.00;100951.38;1428844;100;21243;-92
2021/11/03 09:58:29;;;;;;;34.85;14.83;;;;;;;13.05;100.00;100949.19;1389095;103;21077;-92
2021/11/03 10:01:18;;;;;;;29.80;13.85;;;;;;;13.03;100.00;100950.02;1356843;104;21593;-95
2021/11/03 10:03:49;;;;;;;33.20;13.53;;;;;;;13.05;100.00;100950.55;1357368;103;21234;-95
2021/11/03 10:06:29;;;;;;;33.58;14.20;;;;;;;13.05;100.00;100951.90;1360119;104;21256;-94
2021/11/03 10:08:55;;;;;;;34.73;14.33;;;;;;;13.05;100.00;100942.98;1365887;102;21225;-94
2021/11/03 10:11:41;;;;;;;36.88;15.50;;;;;;;13.08;100.00;100947.30;1359922;104;21709;-95
2021/11/03 10:14:09;;;;;;;36.20;15.88;;;;;;;13.11;100.00;100947.31;1351078;103;21188;-94
2021/11/03 10:16:42;;;;;;;37.80;15.23;;;;;;;13.14;100.00;100954.34;1387566;102;21694;-95
2021/11/03 10:19:20;;;;;;;37.08;14.63;;;;;;;13.14;100.00;100955.70;1394422;101;21649;-95
2021/11/03 10:21:57;;;;;;;36.10;15.25;;;;;;;13.13;100.00;100949.22;1440063;95;21134;-94
2021/11/03 10:24:35;;;;;;;40.45;15.15;;;;;;;13.13;100.00;100950.03;1460266;95;21157;-95
2021/11/03 10:27:13;;;;;;;34.80;15.18;;;;;;;13.14;100.00;100957.05;1421876;98;21226;-93
2021/11/03 10:29:53;;;;;;;37.93;16.17;;;;;;;13.16;100.00;100952.74;1414516;98;22095;-92
2021/11/03 10:32:38;;;;;;;36.48;15.50;;;;;;;13.18;100.00;100958.71;1405498;99;21165;-92
2021/11/03 10:35:27;;;;;;;37.65;15.40;;;;;;;13.19;100.00;100957.07;1404169;99;21135;-93
2021/11/03 10:38:10;;;;;;;33.98;14.93;;;;;;;13.25;100.00;100953.03;1381935;102;21224;-95
2021/11/03 10:41:02;;;;;;;40.00;16.50;;;;;;;13.24;100.00;100948.70;1348041;105;21175;-93
2021/11/03 10:43:39;;;;;;;36.58;14.93;;;;;;;13.19;100.00;100947.60;1347593;105;22593;-96
2021/11/03 10:46:33;;;;;;;39.35;16.07;;;;;;;13.22;100.00;100953.56;1333101;106;21324;-96
2021/11/03 10:49:11;;;;;;;37.55;15.93;;;;;;;13.18;100.00;100951.94;1313522;107;25200;-96
2021/11/03 10:51:41;;;;;;;39.03;16.60;;;;;;;13.19;100.00;100953.02;1327794;107;21140;-94
2021/11/03 10:54:19;;;;;;;36.48;15.80;;;;;;;13.17;100.00;100948.95;1339199;104;21163;-95
2021/11/03 10:56:59;;;;;;;37.30;16.70;;;;;;;13.19;100.00;100947.60;1366171;104;21651;-95
2021/11/03 10:59:31;;;;;;;40.12;16.23;;;;;;;13.21;100.00;100945.16;1359287;104;21219;-96
2021/11/03 11:02:26;;;;;;;45.38;17.32;;;;;;;13.18;100.00;100943.83;1359561;105;21121;-95
2021/11/03 11:04:55;;;;;;;46.02;17.23;;;;;;;13.15;100.00;100947.88;1355721;105;21144;-95
2021/11/03 11:07:40;;;;;;;47.80;18.67;;;;;;;13.15;100.00;100947.06;1411283;101;21589;-96
2021/11/03 11:10:32;;;;;;;51.25;18.12;;;;;;;13.13;100.00;100948.67;1437723;98;21500;-95
2021/11/03 11:13:03;;;;;;;48.55;18.12;;;;;;;13.13;100.00;100942.45;1458981;97;21734;-95
2021/11/03 11:16:10;;;;;;;51.92;18.98;;;;;;;13.11;100.00;100944.06;1478987;95;21112;-94